Time;durP1;ratioP1;P1;durP2;ratioP2;P2;SDS_P1;SDS_P2;PMS_P1;PMS_P2;Temp;Humidity;BMP_temperature;BMP_pressure;BME280_temperature;BME280_humidity;BME280_pressure;Samples;Min_cycle;Max_cycle;Signal;HPM_P1;HPM_P2
2021/10/31 02:48:46;;;;;;;19.10;12.65;;;;;;;;;;5005077;28;20109;-72
2021/10/31 02:51:25;;;;;;;18.98;14.18;;;;;;;;;;4995164;28;20042;-73
2021/10/31 02:53:58;;;;;;;23.05;14.05;;;;;;;;;;4995518;28;20039;-74
2021/10/31 02:56:33;;;;;;;18.60;14.10;;;;;;;;;;4994980;28;20050;-72
2021/10/31 02:59:05;;;;;;;20.40;14.95;;;;;;;;;;4994879;28;20045;-72
2021/10/31 03:01:31;;;;;;;24.20;14.15;;;;;;;;;;4994973;28;20068;-74
2021/10/31 03:03:57;;;;;;;22.42;12.50;;;;;;;;;;4993639;28;20070;-72
2021/10/31 03:06:23;;;;;;;20.25;14.18;;;;;;;;;;4994835;28;20038;-73
2021/10/31 03:08:50;;;;;;;19.85;14.02;;;;;;;;;;4994815;28;20034;-73
2021/10/31 03:11:16;;;;;;;23.15;13.23;;;;;;;;;;4977348;28;20510;-72
2021/10/31 03:13:41;;;;;;;20.52;13.27;;;;;;;;;;4994549;28;20038;-73
2021/10/31 03:16:08;;;;;;;24.42;15.18;;;;;;;;;;4994368;28;20043;-73
2021/10/31 11:35:28;;;;;;;19.95;13.32;;;;;;;;;;5023740;28;20126;-69
2021/10/31 11:38:01;;;;;;;18.95;13.85;;;;;;;;;;5031583;28;20574;-69
2021/10/31 11:40:37;;;;;;;18.70;13.45;;;;;;;;;;5024557;28;20084;-72
2021/10/31 11:43:07;;;;;;;18.65;13.38;;;;;;;;;;5033218;28;20041;-72
2021/10/31 11:45:35;;;;;;;17.88;13.35;;;;;;;;;;5033392;28;20057;-72
2021/10/31 11:48:13;;;;;;;19.15;14.20;;;;;;;;;;5033336;28;20414;-72
2021/10/31 11:50:42;;;;;;;19.20;12.85;;;;;;;;;;5015487;28;20053;-72
2021/10/31 11:53:18;;;;;;;15.88;12.05;;;;;;;;;;5032686;28;20037;-72
2021/10/31 11:55:46;;;;;;;17.88;11.80;;;;;;;;;;5031933;28;20057;-72
2021/10/31 11:58:49;;;;;;;15.48;11.52;;;;;;;;;;5031745;28;20042;-71
2021/10/31 12:01:45;;;;;;;15.80;12.15;;;;;;;;;;5033226;28;20049;-73
2021/10/31 12:07:41;;;;;;;16.60;12.13;;;;;;;;;;5032998;28;20045;-71
2021/10/31 12:10:22;;;;;;;20.65;12.82;;;;;;;;;;5032758;28;20128;-71
2021/10/31 12:13:16;;;;;;;17.92;13.48;;;;;;;;;;5032916;28;20049;-71
2021/10/31 12:16:03;;;;;;;16.17;11.35;;;;;;;;;;5014707;28;20048;-73
2021/10/31 12:18:51;;;;;;;16.40;12.13;;;;;;;;;;5032529;28;20045;-73
2021/10/31 12:21:28;;;;;;;16.70;12.30;;;;;;;;;;5032683;28;20048;-73
2021/10/31 12:23:57;;;;;;;16.48;10.48;;;;;;;;;;5029045;28;20045;-72
2021/10/31 12:26:24;;;;;;;13.55;11.45;;;;;;;;;;5030412;28;20116;-73
2021/10/31 12:28:50;;;;;;;15.20;10.93;;;;;;;;;;5031226;28;20106;-71
2021/10/31 12:31:21;;;;;;;16.05;10.32;;;;;;;;;;5030937;28;20610;-72
2021/10/31 12:34:16;;;;;;;14.20;10.55;;;;;;;;;;5012377;28;20033;-72
2021/10/31 12:36:45;;;;;;;17.85;10.55;;;;;;;;;;5032314;28;20144;-71
2021/10/31 12:39:31;;;;;;;17.98;11.80;;;;;;;;;;5032804;28;20136;-72
2021/10/31 12:42:13;;;;;;;16.02;11.27;;;;;;;;;;4988903;28;20502;-74
2021/10/31 12:44:44;;;;;;;19.48;11.25;;;;;;;;;;5029828;28;20045;-72
2021/10/31 12:47:16;;;;;;;13.73;10.60;;;;;;;;;;5027850;28;20045;-73
2021/10/31 12:49:46;;;;;;;15.32;10.55;;;;;;;;;;5026288;28;21184;-73
2021/10/31 12:52:19;;;;;;;19.98;12.95;;;;;;;;;;5030257;28;20132;-73
2021/10/31 12:54:45;;;;;;;14.50;9.80;;;;;;;;;;5010506;28;20635;-70
2021/10/31 12:57:12;;;;;;;20.00;11.15;;;;;;;;;;5028927;28;20041;-73
2021/10/31 12:59:45;;;;;;;15.73;10.63;;;;;;;;;;5030390;28;20057;-72
2021/10/31 13:02:12;;;;;;;13.43;10.70;;;;;;;;;;5029612;28;20049;-72
2021/10/31 13:04:53;;;;;;;17.10;10.68;;;;;;;;;;5029746;28;20048;-71
2021/10/31 13:07:19;;;;;;;16.83;10.55;;;;;;;;;;5030575;28;20053;-72
2021/10/31 13:09:48;;;;;;;17.77;10.93;;;;;;;;;;5030137;28;20471;-73
2021/10/31 13:12:27;;;;;;;16.65;10.73;;;;;;;;;;5030605;28;20544;-71
2021/10/31 13:15:01;;;;;;;14.90;10.65;;;;;;;;;;5047021;28;20045;-73
2021/10/31 13:17:34;;;;;;;14.32;9.98;;;;;;;;;;5050365;28;20131;-72
2021/10/31 13:20:11;;;;;;;13.43;10.82;;;;;;;;;;5032265;28;20056;-71
2021/10/31 13:22:40;;;;;;;16.95;11.45;;;;;;;;;;5030862;28;20053;-72
2021/10/31 13:25:07;;;;;;;16.27;11.98;;;;;;;;;;5029458;28;20135;-74
2021/10/31 13:27:32;;;;;;;15.52;11.30;;;;;;;;;;5028749;28;20045;-73
2021/10/31 13:29:58;;;;;;;18.58;12.43;;;;;;;;;;5030086;28;20102;-74
2021/10/31 13:32:26;;;;;;;15.13;11.55;;;;;;;;;;5029022;28;20053;-73
2021/10/31 13:34:54;;;;;;;14.15;9.52;;;;;;;;;;5030940;28;20491;-73
2021/10/31 13:37:23;;;;;;;17.63;11.57;;;;;;;;;;5029010;28;20072;-73
2021/10/31 13:40:06;;;;;;;16.70;12.60;;;;;;;;;;5030373;28;20033;-71
2021/10/31 13:42:37;;;;;;;18.05;11.95;;;;;;;;;;5029336;28;20081;-74
2021/10/31 13:45:08;;;;;;;16.40;12.02;;;;;;;;;;5029925;28;20041;-72
2021/10/31 13:47:40;;;;;;;14.82;11.48;;;;;;;;;;5028117;28;20052;-74
2021/10/31 13:56:50;;;;;;;18.95;12.48;;;;;;;;;;5028688;28;20620;-71
2021/10/31 13:59:54;;;;;;;22.73;11.98;;;;;;;;;;5027185;28;20080;-72
2021/10/31 14:02:23;;;;;;;16.63;11.60;;;;;;;;;;5027055;28;20068;-70
2021/10/31 14:05:10;;;;;;;20.23;12.68;;;;;;;;;;5029533;28;20507;-74
2021/10/31 14:07:39;;;;;;;19.52;12.40;;;;;;;;;;5027677;28;20053;-68
2021/10/31 14:38:17;;;;;;;22.48;13.00;;;;;;;;;;5029634;28;20402;-65
2021/10/31 14:40:43;;;;;;;17.55;13.10;;;;;;;;;;5011322;28;20065;-66
2021/10/31 14:43:13;;;;;;;21.95;13.70;;;;;;;;;;5013156;28;20046;-66
2021/10/31 14:45:39;;;;;;;19.23;13.60;;;;;;;;;;5011605;28;20513;-67
2021/10/31 14:48:28;;;;;;;23.67;14.52;;;;;;;;;;5011883;28;20042;-65
2021/10/31 14:50:55;;;;;;;21.80;13.15;;;;;;;;;;5013994;28;20052;-68
2021/10/31 14:53:22;;;;;;;19.65;14.32;;;;;;;;;;5013418;28;20077;-67
2021/10/31 14:55:51;;;;;;;21.73;13.65;;;;;;;;;;5011913;28;20041;-67
2021/10/31 14:58:17;;;;;;;24.20;13.73;;;;;;;;;;5011972;28;20066;-69
2021/10/31 15:00:48;;;;;;;19.50;13.63;;;;;;;;;;5007813;28;20045;-67
2021/10/31 15:03:13;;;;;;;21.85;14.40;;;;;;;;;;5009009;28;20073;-66
2021/10/31 15:05:41;;;;;;;18.30;13.50;;;;;;;;;;5012250;28;20077;-66
2021/10/31 15:08:07;;;;;;;21.95;14.00;;;;;;;;;;5010012;28;20100;-68
2021/10/31 15:51:50;;;;;;;19.08;14.50;;;;;;;;;;5030951;28;20183;-66
2021/10/31 15:54:16;;;;;;;19.05;13.65;;;;;;;;;;5014793;28;20136;-65
2021/10/31 15:56:41;;;;;;;20.45;14.02;;;;;;;;;;5032525;28;20045;-65
2021/10/31 15:59:07;;;;;;;18.55;13.18;;;;;;;;;;5013272;28;20439;-68
2021/10/31 16:01:34;;;;;;;22.45;14.93;;;;;;;;;;5032500;28;20034;-66
2021/10/31 16:04:03;;;;;;;20.45;14.40;;;;;;;;;;5032115;28;20138;-69
2021/10/31 16:06:30;;;;;;;24.23;15.75;;;;;;;;;;5030780;28;20054;-67
2021/10/31 16:08:56;;;;;;;20.65;14.95;;;;;;;;;;5030930;28;20123;-66
2021/10/31 16:11:21;;;;;;;17.50;12.07;;;;;;;;;;5026952;28;20424;-66
2021/10/31 16:13:47;;;;;;;26.08;15.70;;;;;;;;;;5026975;28;20068;-67
2021/10/31 16:16:16;;;;;;;22.50;14.85;;;;;;;;;;5030241;28;20045;-66
2021/10/31 17:11:00;;;;;;;24.30;16.92;;;;;;;;;;5030892;28;20196;-67
2021/10/31 17:13:28;;;;;;;23.60;15.75;;;;;;;;;;5012196;28;20091;-65
2021/10/31 17:15:57;;;;;;;22.50;15.40;;;;;;;;;;5012830;28;20083;-75
2021/10/31 18:23:31;;;;;;;21.55;14.88;;;;;;;;;;5041053;28;20141;-75
2021/10/31 18:25:58;;;;;;;24.13;15.60;;;;;;;;;;5042027;28;20071;-73
2021/10/31 21:23:43;;;;;;;19.95;12.85;;;;;;;;;;5027499;28;20755;-72
2021/10/31 21:26:10;;;;;;;21.95;14.88;;;;;;;;;;5027885;28;20060;-73
2021/10/31 21:28:36;;;;;;;22.50;12.93;;;;;;;;;;5012583;28;20459;-72
2021/10/31 21:31:02;;;;;;;23.20;15.32;;;;;;;;;;5028958;28;20045;-74
2021/10/31 21:33:27;;;;;;;20.60;14.30;;;;;;;;;;5013157;28;20064;-72
2021/10/31 21:35:53;;;;;;;24.98;16.63;;;;;;;;;;5030819;28;20045;-76
2021/10/31 21:38:21;;;;;;;20.42;13.45;;;;;;;;;;5030887;28;20065;-74
2021/10/31 21:40:52;;;;;;;20.85;14.40;;;;;;;;;;5013931;28;20418;-73
2021/10/31 21:43:18;;;;;;;23.90;16.08;;;;;;;;;;5012252;28;20068;-72
2021/10/31 21:45:44;;;;;;;18.67;14.75;;;;;;;;;;5027575;28;20128;-72
2021/10/31 21:48:10;;;;;;;21.48;17.92;;;;;;;;;;5030869;28;20145;-73
2021/10/31 21:50:35;;;;;;;18.65;13.45;;;;;;;;;;5030417;28;20077;-75
2021/10/31 21:53:00;;;;;;;22.60;14.43;;;;;;;;;;5012862;28;20041;-75
2021/10/31 21:55:26;;;;;;;22.63;15.77;;;;;;;;;;5012745;28;20091;-74
2021/10/31 21:57:51;;;;;;;23.27;15.35;;;;;;;;;;5031499;28;20045;-74
2021/10/31 22:00:19;;;;;;;21.58;15.68;;;;;;;;;;5028848;28;20241;-74
2021/10/31 22:02:44;;;;;;;23.15;15.27;;;;;;;;;;5028568;28;20053;-73
2021/10/31 22:05:09;;;;;;;18.90;14.05;;;;;;;;;;5010216;28;20563;-73
2021/10/31 22:07:35;;;;;;;21.88;15.95;;;;;;;;;;5027388;28;20050;-72
2021/10/31 22:48:54;;;;;;;20.73;14.70;;;;;;;;;;5031831;28;20167;-72
2021/10/31 22:51:19;;;;;;;22.10;15.43;;;;;;;;;;5032364;28;20069;-73
2021/10/31 22:53:45;;;;;;;22.65;14.55;;;;;;;;;;5030353;28;20546;-72
2021/10/31 22:56:11;;;;;;;22.35;13.63;;;;;;;;;;5015185;28;20137;-73
